sensor_id;sensor_type;location;lat;lon;timestamp;P1;durP1;ratioP1;P2;durP2;ratioP2
19507;SDS011;40157;42.566;27.526;2023-02-15T00:01:42;29.67;;;13.10;;
19507;SDS011;40157;42.566;27.526;2023-02-15T00:03:43;29.70;;;11.73;;
19507;SDS011;40157;42.566;27.526;2023-02-15T00:05:43;29.97;;;12.67;;
19507;SDS011;40157;42.566;27.526;2023-02-15T00:07:44;28.87;;;12.33;;
19507;SDS011;40157;42.566;27.526;2023-02-15T00:09:45;29.37;;;14.00;;
19507;SDS011;40157;42.566;27.526;2023-02-15T00:11:46;32.63;;;14.00;;
19507;SDS011;40157;42.566;27.526;2023-02-15T00:13:49;38.27;;;16.00;;
19507;SDS011;40157;42.566;27.526;2023-02-15T00:15:50;38.50;;;16.00;;
19507;SDS011;40157;42.566;27.526;2023-02-15T00:17:50;35.70;;;14.47;;
19507;SDS011;40157;42.566;27.526;2023-02-15T00:19:51;31.03;;;12.53;;
19507;SDS011;40157;42.566;27.526;2023-02-15T00:21:51;35.73;;;14.30;;
19507;SDS011;40157;42.566;27.526;2023-02-15T00:23:52;30.53;;;14.60;;
19507;SDS011;40157;42.566;27.526;2023-02-15T00:25:52;32.87;;;13.93;;
19507;SDS011;40157;42.566;27.526;2023-02-15T00:28:05;31.63;;;13.93;;
19507;SDS011;40157;42.566;27.526;2023-02-15T00:30:06;31.17;;;13.67;;
19507;SDS011;40157;42.566;27.526;2023-02-15T00:32:07;31.40;;;14.63;;
19507;SDS011;40157;42.566;27.526;2023-02-15T00:34:17;31.43;;;13.43;;
19507;SDS011;40157;42.566;27.526;2023-02-15T00:36:19;34.27;;;13.67;;
19507;SDS011;40157;42.566;27.526;2023-02-15T00:38:20;28.40;;;13.83;;
19507;SDS011;40157;42.566;27.526;2023-02-15T00:40:20;30.07;;;14.37;;
19507;SDS011;40157;42.566;27.526;2023-02-15T00:42:21;34.93;;;14.60;;
19507;SDS011;40157;42.566;27.526;2023-02-15T00:44:21;25.83;;;12.73;;
19507;SDS011;40157;42.566;27.526;2023-02-15T00:46:21;31.30;;;13.60;;
19507;SDS011;40157;42.566;27.526;2023-02-15T00:48:22;25.97;;;13.40;;
19507;SDS011;40157;42.566;27.526;2023-02-15T00:50:23;29.07;;;12.47;;
19507;SDS011;40157;42.566;27.526;2023-02-15T00:52:23;27.30;;;12.50;;
19507;SDS011;40157;42.566;27.526;2023-02-15T00:54:24;30.77;;;12.83;;
19507;SDS011;40157;42.566;27.526;2023-02-15T00:56:24;28.13;;;12.03;;
19507;SDS011;40157;42.566;27.526;2023-02-15T00:58:25;31.10;;;13.40;;
19507;SDS011;40157;42.566;27.526;2023-02-15T01:00:25;30.73;;;13.60;;
19507;SDS011;40157;42.566;27.526;2023-02-15T01:02:26;31.00;;;13.73;;
19507;SDS011;40157;42.566;27.526;2023-02-15T01:04:26;30.80;;;14.27;;
19507;SDS011;40157;42.566;27.526;2023-02-15T01:06:27;28.37;;;13.33;;
19507;SDS011;40157;42.566;27.526;2023-02-15T01:08:27;30.30;;;14.90;;
19507;SDS011;40157;42.566;27.526;2023-02-15T01:10:28;33.53;;;15.17;;
19507;SDS011;40157;42.566;27.526;2023-02-15T01:12:28;31.73;;;14.07;;
19507;SDS011;40157;42.566;27.526;2023-02-15T01:14:29;33.57;;;14.53;;
19507;SDS011;40157;42.566;27.526;2023-02-15T01:16:29;29.67;;;13.70;;
19507;SDS011;40157;42.566;27.526;2023-02-15T01:18:30;29.17;;;13.73;;
19507;SDS011;40157;42.566;27.526;2023-02-15T01:20:33;32.10;;;14.93;;
19507;SDS011;40157;42.566;27.526;2023-02-15T01:22:36;30.27;;;14.17;;
19507;SDS011;40157;42.566;27.526;2023-02-15T01:24:37;30.17;;;13.67;;
19507;SDS011;40157;42.566;27.526;2023-02-15T01:26:38;31.60;;;14.00;;
19507;SDS011;40157;42.566;27.526;2023-02-15T01:28:38;33.53;;;14.47;;
19507;SDS011;40157;42.566;27.526;2023-02-15T01:30:38;34.10;;;14.67;;
19507;SDS011;40157;42.566;27.526;2023-02-15T01:32:39;32.87;;;14.73;;
19507;SDS011;40157;42.566;27.526;2023-02-15T01:34:40;26.23;;;13.10;;
19507;SDS011;40157;42.566;27.526;2023-02-15T01:36:40;29.40;;;13.67;;
19507;SDS011;40157;42.566;27.526;2023-02-15T01:38:41;27.57;;;12.67;;
19507;SDS011;40157;42.566;27.526;2023-02-15T01:40:41;29.30;;;13.30;;
19507;SDS011;40157;42.566;27.526;2023-02-15T01:42:42;29.27;;;13.37;;
19507;SDS011;40157;42.566;27.526;2023-02-15T01:46:50;30.80;;;12.13;;
19507;SDS011;40157;42.566;27.526;2023-02-15T01:48:56;37.73;;;14.73;;
19507;SDS011;40157;42.566;27.526;2023-02-15T01:51:02;31.40;;;13.10;;
19507;SDS011;40157;42.566;27.526;2023-02-15T01:53:13;27.20;;;10.83;;
19507;SDS011;40157;42.566;27.526;2023-02-15T01:55:19;32.47;;;12.77;;
19507;SDS011;40157;42.566;27.526;2023-02-15T01:57:22;31.57;;;14.50;;
19507;SDS011;40157;42.566;27.526;2023-02-15T01:59:25;27.00;;;13.20;;
19507;SDS011;40157;42.566;27.526;2023-02-15T02:01:26;32.40;;;14.50;;
19507;SDS011;40157;42.566;27.526;2023-02-15T02:05:59;31.33;;;13.20;;
19507;SDS011;40157;42.566;27.526;2023-02-15T02:08:00;33.63;;;14.97;;
19507;SDS011;40157;42.566;27.526;2023-02-15T02:10:02;31.97;;;15.00;;
19507;SDS011;40157;42.566;27.526;2023-02-15T02:12:04;31.40;;;14.97;;
19507;SDS011;40157;42.566;27.526;2023-02-15T02:14:06;32.73;;;14.70;;
19507;SDS011;40157;42.566;27.526;2023-02-15T02:16:21;30.83;;;14.10;;
19507;SDS011;40157;42.566;27.526;2023-02-15T02:20:43;33.87;;;14.57;;
19507;SDS011;40157;42.566;27.526;2023-02-15T02:23:06;33.43;;;13.50;;
19507;SDS011;40157;42.566;27.526;2023-02-15T02:27:56;28.07;;;12.90;;
19507;SDS011;40157;42.566;27.526;2023-02-15T02:40:23;43.43;;;19.20;;
19507;SDS011;40157;42.566;27.526;2023-02-15T02:42:35;54.53;;;22.23;;
19507;SDS011;40157;42.566;27.526;2023-02-15T02:44:50;64.40;;;23.20;;
19507;SDS011;40157;42.566;27.526;2023-02-15T02:46:58;54.00;;;17.70;;
19507;SDS011;40157;42.566;27.526;2023-02-15T02:49:02;36.17;;;15.47;;
19507;SDS011;40157;42.566;27.526;2023-02-15T02:51:02;35.60;;;16.33;;
19507;SDS011;40157;42.566;27.526;2023-02-15T02:53:03;33.20;;;14.20;;
19507;SDS011;40157;42.566;27.526;2023-02-15T02:55:05;30.37;;;14.93;;
19507;SDS011;40157;42.566;27.526;2023-02-15T02:57:09;29.87;;;13.30;;
19507;SDS011;40157;42.566;27.526;2023-02-15T02:59:17;31.47;;;12.60;;
19507;SDS011;40157;42.566;27.526;2023-02-15T03:01:31;33.13;;;13.47;;
19507;SDS011;40157;42.566;27.526;2023-02-15T03:03:45;27.80;;;10.90;;
19507;SDS011;40157;42.566;27.526;2023-02-15T03:05:50;27.43;;;11.83;;
19507;SDS011;40157;42.566;27.526;2023-02-15T03:07:55;38.43;;;14.40;;
19507;SDS011;40157;42.566;27.526;2023-02-15T03:09:57;40.43;;;17.07;;
19507;SDS011;40157;42.566;27.526;2023-02-15T03:12:00;29.50;;;13.30;;
19507;SDS011;40157;42.566;27.526;2023-02-15T03:14:03;30.07;;;12.60;;
19507;SDS011;40157;42.566;27.526;2023-02-15T03:16:04;27.50;;;12.50;;
19507;SDS011;40157;42.566;27.526;2023-02-15T03:18:25;36.23;;;12.77;;
19507;SDS011;40157;42.566;27.526;2023-02-15T03:20:33;24.80;;;11.57;;
19507;SDS011;40157;42.566;27.526;2023-02-15T03:22:38;30.90;;;12.87;;
19507;SDS011;40157;42.566;27.526;2023-02-15T03:24:53;29.67;;;12.60;;
19507;SDS011;40157;42.566;27.526;2023-02-15T03:27:31;33.27;;;13.70;;
19507;SDS011;40157;42.566;27.526;2023-02-15T03:29:35;35.97;;;14.00;;
19507;SDS011;40157;42.566;27.526;2023-02-15T03:31:39;27.23;;;13.50;;
19507;SDS011;40157;42.566;27.526;2023-02-15T03:33:51;32.87;;;13.40;;
19507;SDS011;40157;42.566;27.526;2023-02-15T03:38:12;31.40;;;11.83;;
19507;SDS011;40157;42.566;27.526;2023-02-15T03:42:37;32.57;;;12.33;;
19507;SDS011;40157;42.566;27.526;2023-02-15T03:44:44;28.87;;;13.00;;
19507;SDS011;40157;42.566;27.526;2023-02-15T03:49:31;34.73;;;12.90;;
19507;SDS011;40157;42.566;27.526;2023-02-15T03:51:40;29.77;;;11.53;;
19507;SDS011;40157;42.566;27.526;2023-02-15T03:53:44;34.53;;;14.00;;
19507;SDS011;40157;42.566;27.526;2023-02-15T03:55:47;31.40;;;12.83;;
19507;SDS011;40157;42.566;27.526;2023-02-15T03:57:53;26.97;;;12.03;;
19507;SDS011;40157;42.566;27.526;2023-02-15T04:05:28;26.70;;;10.77;;
19507;SDS011;40157;42.566;27.526;2023-02-15T04:07:29;24.30;;;11.63;;
19507;SDS011;40157;42.566;27.526;2023-02-15T04:09:29;28.37;;;11.90;;
19507;SDS011;40157;42.566;27.526;2023-02-15T04:11:48;30.50;;;12.23;;
19507;SDS011;40157;42.566;27.526;2023-02-15T04:13:48;26.73;;;12.30;;
19507;SDS011;40157;42.566;27.526;2023-02-15T04:15:56;27.53;;;12.00;;
19507;SDS011;40157;42.566;27.526;2023-02-15T04:18:03;33.33;;;12.87;;
19507;SDS011;40157;42.566;27.526;2023-02-15T04:20:03;32.07;;;12.73;;
19507;SDS011;40157;42.566;27.526;2023-02-15T04:22:23;26.17;;;11.37;;
19507;SDS011;40157;42.566;27.526;2023-02-15T04:24:42;29.03;;;12.63;;
19507;SDS011;40157;42.566;27.526;2023-02-15T04:27:01;35.17;;;14.20;;
19507;SDS011;40157;42.566;27.526;2023-02-15T04:29:02;31.73;;;12.73;;
19507;SDS011;40157;42.566;27.526;2023-02-15T04:31:03;31.33;;;12.83;;
19507;SDS011;40157;42.566;27.526;2023-02-15T04:33:06;27.93;;;12.63;;
19507;SDS011;40157;42.566;27.526;2023-02-15T04:35:07;33.17;;;12.50;;
19507;SDS011;40157;42.566;27.526;2023-02-15T04:37:09;29.77;;;12.23;;
19507;SDS011;40157;42.566;27.526;2023-02-15T04:39:12;26.37;;;11.23;;
19507;SDS011;40157;42.566;27.526;2023-02-15T04:41:13;27.13;;;11.23;;
19507;SDS011;40157;42.566;27.526;2023-02-15T04:43:14;31.97;;;12.87;;
19507;SDS011;40157;42.566;27.526;2023-02-15T04:45:14;23.97;;;11.90;;
19507;SDS011;40157;42.566;27.526;2023-02-15T04:47:15;23.00;;;10.47;;
19507;SDS011;40157;42.566;27.526;2023-02-15T04:49:15;26.83;;;11.60;;
19507;SDS011;40157;42.566;27.526;2023-02-15T04:51:16;28.07;;;12.53;;
19507;SDS011;40157;42.566;27.526;2023-02-15T04:53:16;24.90;;;11.37;;
19507;SDS011;40157;42.566;27.526;2023-02-15T04:55:18;28.40;;;11.10;;
19507;SDS011;40157;42.566;27.526;2023-02-15T04:57:18;26.40;;;11.53;;
19507;SDS011;40157;42.566;27.526;2023-02-15T04:59:19;23.60;;;11.03;;
19507;SDS011;40157;42.566;27.526;2023-02-15T05:01:19;32.90;;;13.23;;
19507;SDS011;40157;42.566;27.526;2023-02-15T05:03:20;31.80;;;12.83;;
19507;SDS011;40157;42.566;27.526;2023-02-15T05:05:20;27.57;;;11.93;;
19507;SDS011;40157;42.566;27.526;2023-02-15T05:07:21;22.00;;;11.07;;
19507;SDS011;40157;42.566;27.526;2023-02-15T05:09:21;23.27;;;10.97;;
19507;SDS011;40157;42.566;27.526;2023-02-15T05:11:22;26.50;;;11.77;;
19507;SDS011;40157;42.566;27.526;2023-02-15T05:13:22;25.70;;;12.20;;
19507;SDS011;40157;42.566;27.526;2023-02-15T05:15:24;24.50;;;11.27;;
19507;SDS011;40157;42.566;27.526;2023-02-15T05:17:24;27.97;;;12.47;;
19507;SDS011;40157;42.566;27.526;2023-02-15T05:19:25;30.50;;;13.47;;
19507;SDS011;40157;42.566;27.526;2023-02-15T05:21:25;22.60;;;11.13;;
19507;SDS011;40157;42.566;27.526;2023-02-15T05:23:26;24.13;;;12.17;;
19507;SDS011;40157;42.566;27.526;2023-02-15T05:25:26;24.23;;;11.87;;
19507;SDS011;40157;42.566;27.526;2023-02-15T05:27:45;19.80;;;9.47;;
19507;SDS011;40157;42.566;27.526;2023-02-15T05:30:04;22.90;;;9.30;;
19507;SDS011;40157;42.566;27.526;2023-02-15T05:32:05;18.17;;;9.03;;
19507;SDS011;40157;42.566;27.526;2023-02-15T05:34:07;20.57;;;8.93;;
19507;SDS011;40157;42.566;27.526;2023-02-15T05:36:08;22.00;;;9.57;;
19507;SDS011;40157;42.566;27.526;2023-02-15T05:38:09;22.00;;;9.47;;
19507;SDS011;40157;42.566;27.526;2023-02-15T05:40:10;21.30;;;10.57;;
19507;SDS011;40157;42.566;27.526;2023-02-15T05:42:11;25.27;;;11.40;;
19507;SDS011;40157;42.566;27.526;2023-02-15T05:44:11;31.60;;;13.90;;
19507;SDS011;40157;42.566;27.526;2023-02-15T05:46:12;65.17;;;31.87;;
19507;SDS011;40157;42.566;27.526;2023-02-15T05:48:12;51.07;;;26.57;;
19507;SDS011;40157;42.566;27.526;2023-02-15T05:50:13;35.70;;;19.00;;
19507;SDS011;40157;42.566;27.526;2023-02-15T05:52:13;27.37;;;13.37;;
19507;SDS011;40157;42.566;27.526;2023-02-15T05:54:13;33.10;;;15.67;;
19507;SDS011;40157;42.566;27.526;2023-02-15T05:56:14;27.43;;;14.20;;
19507;SDS011;40157;42.566;27.526;2023-02-15T05:58:14;36.27;;;15.27;;
19507;SDS011;40157;42.566;27.526;2023-02-15T06:00:15;35.90;;;16.07;;
19507;SDS011;40157;42.566;27.526;2023-02-15T06:02:16;33.27;;;14.33;;
19507;SDS011;40157;42.566;27.526;2023-02-15T06:04:16;40.80;;;16.90;;
19507;SDS011;40157;42.566;27.526;2023-02-15T06:06:17;47.30;;;18.63;;
19507;SDS011;40157;42.566;27.526;2023-02-15T06:08:17;45.77;;;20.23;;
19507;SDS011;40157;42.566;27.526;2023-02-15T06:10:18;41.43;;;22.30;;
19507;SDS011;40157;42.566;27.526;2023-02-15T06:12:18;57.87;;;29.27;;
19507;SDS011;40157;42.566;27.526;2023-02-15T06:14:19;42.73;;;18.63;;
19507;SDS011;40157;42.566;27.526;2023-02-15T06:16:19;29.50;;;14.70;;
19507;SDS011;40157;42.566;27.526;2023-02-15T06:18:20;32.83;;;16.30;;
19507;SDS011;40157;42.566;27.526;2023-02-15T06:20:20;35.47;;;14.93;;
19507;SDS011;40157;42.566;27.526;2023-02-15T06:22:21;27.77;;;12.80;;
19507;SDS011;40157;42.566;27.526;2023-02-15T06:24:22;21.80;;;10.60;;
19507;SDS011;40157;42.566;27.526;2023-02-15T06:26:23;22.77;;;11.17;;
19507;SDS011;40157;42.566;27.526;2023-02-15T06:28:23;22.23;;;9.10;;
19507;SDS011;40157;42.566;27.526;2023-02-15T06:30:25;23.63;;;12.13;;
19507;SDS011;40157;42.566;27.526;2023-02-15T06:32:25;24.53;;;11.23;;
19507;SDS011;40157;42.566;27.526;2023-02-15T06:34:26;20.23;;;9.53;;
19507;SDS011;40157;42.566;27.526;2023-02-15T06:36:27;22.03;;;11.27;;
19507;SDS011;40157;42.566;27.526;2023-02-15T06:38:28;21.20;;;10.80;;
19507;SDS011;40157;42.566;27.526;2023-02-15T06:40:29;23.33;;;10.97;;
19507;SDS011;40157;42.566;27.526;2023-02-15T06:42:30;28.63;;;12.47;;
19507;SDS011;40157;42.566;27.526;2023-02-15T06:44:30;101.13;;;37.43;;
19507;SDS011;40157;42.566;27.526;2023-02-15T06:46:31;71.27;;;31.07;;
19507;SDS011;40157;42.566;27.526;2023-02-15T06:48:31;38.50;;;15.90;;
19507;SDS011;40157;42.566;27.526;2023-02-15T06:50:32;23.50;;;10.93;;
19507;SDS011;40157;42.566;27.526;2023-02-15T06:52:33;23.33;;;9.70;;
19507;SDS011;40157;42.566;27.526;2023-02-15T06:54:33;24.97;;;10.53;;
19507;SDS011;40157;42.566;27.526;2023-02-15T06:56:34;30.03;;;10.83;;
19507;SDS011;40157;42.566;27.526;2023-02-15T06:58:35;23.43;;;9.77;;
19507;SDS011;40157;42.566;27.526;2023-02-15T07:00:39;32.83;;;15.07;;
19507;SDS011;40157;42.566;27.526;2023-02-15T07:02:40;38.90;;;14.10;;
19507;SDS011;40157;42.566;27.526;2023-02-15T07:04:40;26.23;;;11.60;;
19507;SDS011;40157;42.566;27.526;2023-02-15T07:06:41;28.13;;;12.10;;
19507;SDS011;40157;42.566;27.526;2023-02-15T07:08:42;23.13;;;10.87;;
19507;SDS011;40157;42.566;27.526;2023-02-15T07:10:45;20.90;;;9.33;;
19507;SDS011;40157;42.566;27.526;2023-02-15T07:12:46;20.73;;;8.17;;
19507;SDS011;40157;42.566;27.526;2023-02-15T07:14:46;21.67;;;8.57;;
19507;SDS011;40157;42.566;27.526;2023-02-15T07:16:47;18.73;;;8.00;;
19507;SDS011;40157;42.566;27.526;2023-02-15T07:18:47;14.37;;;6.70;;
19507;SDS011;40157;42.566;27.526;2023-02-15T07:20:48;12.20;;;5.77;;
19507;SDS011;40157;42.566;27.526;2023-02-15T07:22:49;8.90;;;5.07;;
19507;SDS011;40157;42.566;27.526;2023-02-15T07:24:50;10.80;;;5.30;;
19507;SDS011;40157;42.566;27.526;2023-02-15T07:26:54;13.03;;;5.13;;
19507;SDS011;40157;42.566;27.526;2023-02-15T07:28:54;11.33;;;4.70;;
19507;SDS011;40157;42.566;27.526;2023-02-15T07:30:55;9.53;;;4.37;;
19507;SDS011;40157;42.566;27.526;2023-02-15T07:32:57;12.07;;;5.03;;
19507;SDS011;40157;42.566;27.526;2023-02-15T07:35:17;10.67;;;5.30;;
19507;SDS011;40157;42.566;27.526;2023-02-15T07:37:17;13.83;;;5.40;;
19507;SDS011;40157;42.566;27.526;2023-02-15T07:39:18;10.60;;;5.43;;
19507;SDS011;40157;42.566;27.526;2023-02-15T07:41:18;8.20;;;4.33;;
19507;SDS011;40157;42.566;27.526;2023-02-15T07:43:19;8.17;;;4.27;;
19507;SDS011;40157;42.566;27.526;2023-02-15T07:45:20;13.77;;;4.70;;
19507;SDS011;40157;42.566;27.526;2023-02-15T07:47:21;13.90;;;5.07;;
19507;SDS011;40157;42.566;27.526;2023-02-15T07:49:21;12.27;;;4.67;;
19507;SDS011;40157;42.566;27.526;2023-02-15T07:51:22;9.10;;;3.90;;
19507;SDS011;40157;42.566;27.526;2023-02-15T07:53:22;10.37;;;4.40;;
19507;SDS011;40157;42.566;27.526;2023-02-15T07:55:23;11.47;;;4.50;;
19507;SDS011;40157;42.566;27.526;2023-02-15T07:57:24;8.60;;;4.20;;
19507;SDS011;40157;42.566;27.526;2023-02-15T07:59:25;10.93;;;4.23;;
19507;SDS011;40157;42.566;27.526;2023-02-15T08:01:26;11.17;;;4.87;;
19507;SDS011;40157;42.566;27.526;2023-02-15T08:03:29;9.17;;;4.77;;
19507;SDS011;40157;42.566;27.526;2023-02-15T08:05:30;13.10;;;5.03;;
19507;SDS011;40157;42.566;27.526;2023-02-15T08:07:30;8.23;;;4.00;;
19507;SDS011;40157;42.566;27.526;2023-02-15T08:09:31;8.70;;;4.30;;
19507;SDS011;40157;42.566;27.526;2023-02-15T08:11:32;10.97;;;4.20;;
19507;SDS011;40157;42.566;27.526;2023-02-15T08:13:36;9.93;;;4.20;;
19507;SDS011;40157;42.566;27.526;2023-02-15T08:15:53;8.37;;;3.70;;
19507;SDS011;40157;42.566;27.526;2023-02-15T08:17:53;8.70;;;4.40;;
19507;SDS011;40157;42.566;27.526;2023-02-15T08:19:54;10.27;;;4.47;;
19507;SDS011;40157;42.566;27.526;2023-02-15T08:22:01;10.37;;;3.60;;
19507;SDS011;40157;42.566;27.526;2023-02-15T08:24:06;13.43;;;4.20;;
19507;SDS011;40157;42.566;27.526;2023-02-15T08:26:08;9.10;;;4.17;;
19507;SDS011;40157;42.566;27.526;2023-02-15T08:28:08;10.10;;;4.33;;
19507;SDS011;40157;42.566;27.526;2023-02-15T08:30:09;8.13;;;4.17;;
19507;SDS011;40157;42.566;27.526;2023-02-15T08:32:10;8.63;;;4.60;;
19507;SDS011;40157;42.566;27.526;2023-02-15T08:34:13;8.20;;;3.87;;
19507;SDS011;40157;42.566;27.526;2023-02-15T08:36:16;8.00;;;3.73;;
19507;SDS011;40157;42.566;27.526;2023-02-15T08:38:18;10.03;;;4.67;;
19507;SDS011;40157;42.566;27.526;2023-02-15T08:40:19;10.30;;;4.67;;
19507;SDS011;40157;42.566;27.526;2023-02-15T08:42:20;8.53;;;3.70;;
19507;SDS011;40157;42.566;27.526;2023-02-15T08:44:20;9.40;;;4.23;;
19507;SDS011;40157;42.566;27.526;2023-02-15T08:46:23;9.50;;;4.20;;
19507;SDS011;40157;42.566;27.526;2023-02-15T08:48:28;13.07;;;4.50;;
19507;SDS011;40157;42.566;27.526;2023-02-15T08:50:28;11.60;;;4.43;;
19507;SDS011;40157;42.566;27.526;2023-02-15T08:52:29;8.57;;;4.03;;
19507;SDS011;40157;42.566;27.526;2023-02-15T08:54:29;10.40;;;4.40;;
19507;SDS011;40157;42.566;27.526;2023-02-15T08:56:32;11.57;;;4.60;;
19507;SDS011;40157;42.566;27.526;2023-02-15T08:58:35;9.67;;;3.93;;
19507;SDS011;40157;42.566;27.526;2023-02-15T09:00:36;10.43;;;4.83;;
19507;SDS011;40157;42.566;27.526;2023-02-15T09:02:36;14.43;;;5.10;;
19507;SDS011;40157;42.566;27.526;2023-02-15T09:04:37;11.23;;;4.47;;
19507;SDS011;40157;42.566;27.526;2023-02-15T09:06:38;10.10;;;5.00;;
19507;SDS011;40157;42.566;27.526;2023-02-15T09:08:40;10.03;;;4.87;;
19507;SDS011;40157;42.566;27.526;2023-02-15T09:10:41;17.13;;;5.60;;
19507;SDS011;40157;42.566;27.526;2023-02-15T09:12:41;11.03;;;4.97;;
19507;SDS011;40157;42.566;27.526;2023-02-15T09:14:42;12.37;;;5.10;;
19507;SDS011;40157;42.566;27.526;2023-02-15T09:16:43;10.63;;;4.33;;
19507;SDS011;40157;42.566;27.526;2023-02-15T09:18:50;12.37;;;5.63;;
19507;SDS011;40157;42.566;27.526;2023-02-15T09:20:51;14.43;;;5.07;;
19507;SDS011;40157;42.566;27.526;2023-02-15T09:22:52;14.80;;;6.43;;
19507;SDS011;40157;42.566;27.526;2023-02-15T09:24:54;11.00;;;5.37;;
19507;SDS011;40157;42.566;27.526;2023-02-15T09:26:54;13.67;;;5.97;;
19507;SDS011;40157;42.566;27.526;2023-02-15T09:28:56;11.90;;;5.90;;
19507;SDS011;40157;42.566;27.526;2023-02-15T09:31:08;10.40;;;5.30;;
19507;SDS011;40157;42.566;27.526;2023-02-15T09:33:19;10.67;;;5.77;;
19507;SDS011;40157;42.566;27.526;2023-02-15T09:35:19;13.57;;;5.53;;
19507;SDS011;40157;42.566;27.526;2023-02-15T09:37:20;15.57;;;5.87;;
19507;SDS011;40157;42.566;27.526;2023-02-15T09:39:24;14.60;;;6.00;;
19507;SDS011;40157;42.566;27.526;2023-02-15T09:46:15;11.77;;;5.67;;
19507;SDS011;40157;42.566;27.526;2023-02-15T10:02:27;12.13;;;5.97;;
19507;SDS011;40157;42.566;27.526;2023-02-15T10:04:49;30.70;;;7.10;;
19507;SDS011;40157;42.566;27.526;2023-02-15T10:07:40;11.60;;;5.40;;
19507;SDS011;40157;42.566;27.526;2023-02-15T10:10:04;12.30;;;6.03;;
19507;SDS011;40157;42.566;27.526;2023-02-15T10:28:54;12.40;;;5.87;;
19507;SDS011;40157;42.566;27.526;2023-02-15T10:33:40;8.83;;;5.00;;
19507;SDS011;40157;42.566;27.526;2023-02-15T10:35:45;12.70;;;5.97;;
19507;SDS011;40157;42.566;27.526;2023-02-15T10:44:45;12.57;;;5.70;;
19507;SDS011;40157;42.566;27.526;2023-02-15T10:47:00;13.00;;;6.20;;
19507;SDS011;40157;42.566;27.526;2023-02-15T10:49:42;13.53;;;6.07;;
19507;SDS011;40157;42.566;27.526;2023-02-15T10:58:59;12.87;;;6.33;;
19507;SDS011;40157;42.566;27.526;2023-02-15T11:07:37;12.43;;;6.60;;
19507;SDS011;40157;42.566;27.526;2023-02-15T11:09:41;11.80;;;6.10;;
19507;SDS011;40157;42.566;27.526;2023-02-15T11:11:53;12.40;;;5.80;;
19507;SDS011;40157;42.566;27.526;2023-02-15T11:13:59;15.63;;;6.63;;
19507;SDS011;40157;42.566;27.526;2023-02-15T11:16:16;14.93;;;6.63;;
19507;SDS011;40157;42.566;27.526;2023-02-15T11:20:45;12.07;;;6.57;;
19507;SDS011;40157;42.566;27.526;2023-02-15T11:22:53;14.30;;;5.97;;
19507;SDS011;40157;42.566;27.526;2023-02-15T11:24:54;13.07;;;6.70;;
19507;SDS011;40157;42.566;27.526;2023-02-15T11:31:49;13.03;;;6.47;;
19507;SDS011;40157;42.566;27.526;2023-02-15T11:33:56;13.77;;;6.57;;
19507;SDS011;40157;42.566;27.526;2023-02-15T11:36:01;13.00;;;6.47;;
19507;SDS011;40157;42.566;27.526;2023-02-15T11:38:12;12.33;;;6.80;;
19507;SDS011;40157;42.566;27.526;2023-02-15T11:42:27;15.43;;;6.47;;
19507;SDS011;40157;42.566;27.526;2023-02-15T11:44:41;10.70;;;6.10;;
19507;SDS011;40157;42.566;27.526;2023-02-15T11:46:49;14.17;;;6.93;;
19507;SDS011;40157;42.566;27.526;2023-02-15T11:48:50;16.70;;;7.33;;
19507;SDS011;40157;42.566;27.526;2023-02-15T11:50:50;13.93;;;7.03;;
19507;SDS011;40157;42.566;27.526;2023-02-15T11:52:52;15.23;;;6.80;;
19507;SDS011;40157;42.566;27.526;2023-02-15T11:54:56;13.53;;;6.97;;
19507;SDS011;40157;42.566;27.526;2023-02-15T11:56:58;15.47;;;6.63;;
19507;SDS011;40157;42.566;27.526;2023-02-15T11:59:04;10.50;;;6.07;;
19507;SDS011;40157;42.566;27.526;2023-02-15T12:03:50;13.10;;;7.07;;
19507;SDS011;40157;42.566;27.526;2023-02-15T12:05:57;15.00;;;7.23;;
19507;SDS011;40157;42.566;27.526;2023-02-15T12:08:02;12.13;;;6.33;;
19507;SDS011;40157;42.566;27.526;2023-02-15T12:10:20;16.80;;;6.03;;
19507;SDS011;40157;42.566;27.526;2023-02-15T12:14:32;13.53;;;6.47;;
19507;SDS011;40157;42.566;27.526;2023-02-15T12:16:49;11.27;;;6.37;;
19507;SDS011;40157;42.566;27.526;2023-02-15T12:18:54;14.80;;;6.47;;
19507;SDS011;40157;42.566;27.526;2023-02-15T12:20:58;11.13;;;6.70;;
19507;SDS011;40157;42.566;27.526;2023-02-15T12:23:04;15.20;;;6.73;;
19507;SDS011;40157;42.566;27.526;2023-02-15T12:25:22;15.23;;;7.23;;
19507;SDS011;40157;42.566;27.526;2023-02-15T12:27:42;11.33;;;6.63;;
19507;SDS011;40157;42.566;27.526;2023-02-15T12:29:47;12.57;;;6.67;;
19507;SDS011;40157;42.566;27.526;2023-02-15T12:31:50;14.00;;;7.20;;
19507;SDS011;40157;42.566;27.526;2023-02-15T12:33:53;14.47;;;7.37;;
19507;SDS011;40157;42.566;27.526;2023-02-15T12:40:23;13.20;;;7.37;;
19507;SDS011;40157;42.566;27.526;2023-02-15T12:42:26;12.33;;;6.67;;
19507;SDS011;40157;42.566;27.526;2023-02-15T12:44:33;15.53;;;7.07;;
19507;SDS011;40157;42.566;27.526;2023-02-15T12:46:35;9.83;;;5.97;;
19507;SDS011;40157;42.566;27.526;2023-02-15T12:48:35;14.47;;;7.80;;
19507;SDS011;40157;42.566;27.526;2023-02-15T12:50:36;15.17;;;6.90;;
19507;SDS011;40157;42.566;27.526;2023-02-15T12:52:36;13.93;;;7.37;;
19507;SDS011;40157;42.566;27.526;2023-02-15T12:54:38;14.07;;;6.97;;
19507;SDS011;40157;42.566;27.526;2023-02-15T12:56:40;16.43;;;7.17;;
19507;SDS011;40157;42.566;27.526;2023-02-15T12:58:42;20.60;;;6.90;;
19507;SDS011;40157;42.566;27.526;2023-02-15T13:00:42;17.43;;;6.73;;
19507;SDS011;40157;42.566;27.526;2023-02-15T13:02:51;13.43;;;6.70;;
19507;SDS011;40157;42.566;27.526;2023-02-15T13:04:53;12.47;;;7.27;;
19507;SDS011;40157;42.566;27.526;2023-02-15T13:07:00;13.00;;;7.17;;
19507;SDS011;40157;42.566;27.526;2023-02-15T13:09:33;12.77;;;6.50;;
19507;SDS011;40157;42.566;27.526;2023-02-15T13:11:34;11.97;;;6.43;;
19507;SDS011;40157;42.566;27.526;2023-02-15T13:15:59;16.40;;;7.23;;
19507;SDS011;40157;42.566;27.526;2023-02-15T13:18:05;14.60;;;7.77;;
19507;SDS011;40157;42.566;27.526;2023-02-15T13:20:16;14.00;;;6.87;;
19507;SDS011;40157;42.566;27.526;2023-02-15T13:22:56;11.27;;;6.40;;
19507;SDS011;40157;42.566;27.526;2023-02-15T13:24:52;13.40;;;6.43;;
19507;SDS011;40157;42.566;27.526;2023-02-15T13:26:56;11.47;;;6.33;;
19507;SDS011;40157;42.566;27.526;2023-02-15T13:28:59;15.07;;;6.47;;
19507;SDS011;40157;42.566;27.526;2023-02-15T13:31:25;14.97;;;7.07;;
19507;SDS011;40157;42.566;27.526;2023-02-15T13:33:35;16.33;;;6.80;;
19507;SDS011;40157;42.566;27.526;2023-02-15T13:35:40;34.03;;;7.27;;
19507;SDS011;40157;42.566;27.526;2023-02-15T13:42:28;13.23;;;6.23;;
19507;SDS011;40157;42.566;27.526;2023-02-15T13:51:59;17.07;;;6.90;;
19507;SDS011;40157;42.566;27.526;2023-02-15T13:54:12;16.97;;;6.47;;
19507;SDS011;40157;42.566;27.526;2023-02-15T13:58:31;15.30;;;6.80;;
19507;SDS011;40157;42.566;27.526;2023-02-15T14:08:11;14.30;;;6.27;;
19507;SDS011;40157;42.566;27.526;2023-02-15T14:10:21;13.03;;;6.63;;
19507;SDS011;40157;42.566;27.526;2023-02-15T14:17:34;12.77;;;5.70;;
19507;SDS011;40157;42.566;27.526;2023-02-15T14:19:45;12.23;;;6.87;;
19507;SDS011;40157;42.566;27.526;2023-02-15T14:22:11;15.87;;;8.20;;